createdAt,value
2018-09-23T00:01:55.532Z,13.67
2018-09-23T00:04:23.562Z,12.07
2018-09-23T00:06:51.560Z,20.07
2018-09-23T00:09:19.588Z,15.20
2018-09-23T00:11:47.682Z,13.40
2018-09-23T00:14:16.545Z,15.50
2018-09-23T00:16:44.772Z,15.80
2018-09-23T00:19:12.810Z,14.80
2018-09-23T00:21:40.833Z,20.37
2018-09-23T00:24:08.861Z,19.53
2018-09-23T00:26:36.872Z,16.70
2018-09-23T00:29:04.938Z,21.87
2018-09-23T00:31:32.989Z,18.03
2018-09-23T00:34:01.132Z,16.90
2018-09-23T00:36:29.232Z,16.80
2018-09-23T00:38:57.393Z,16.60
2018-09-23T00:41:25.425Z,16.27
2018-09-23T00:43:53.456Z,18.43
2018-09-23T00:46:21.484Z,21.73
2018-09-23T00:48:49.516Z,17.83
2018-09-23T00:51:17.592Z,19.37
2018-09-23T00:53:45.609Z,22.20
2018-09-23T00:56:13.660Z,19.20
2018-09-23T00:58:41.653Z,16.23
2018-09-23T01:01:09.713Z,21.03
2018-09-23T01:03:37.744Z,17.70
2018-09-23T01:06:05.820Z,21.00
2018-09-23T01:08:33.852Z,25.70
2018-09-23T01:11:01.850Z,22.07
2018-09-23T01:13:29.892Z,17.10
2018-09-23T01:15:57.959Z,20.40
2018-09-23T01:18:25.976Z,16.60
2018-09-23T01:20:53.986Z,24.80
2018-09-23T01:23:22.009Z,19.20
2018-09-23T01:25:51.096Z,19.10
2018-09-23T01:28:19.100Z,16.93
2018-09-23T01:30:47.140Z,21.83
2018-09-23T01:33:15.129Z,23.37
2018-09-23T01:35:43.334Z,19.37
2018-09-23T01:38:11.424Z,19.97
2018-09-23T01:40:39.461Z,22.03
2018-09-23T01:43:07.477Z,22.53
2018-09-23T01:45:35.501Z,21.13
2018-09-23T01:48:03.504Z,19.40
2018-09-23T01:50:31.521Z,36.03
2018-09-23T01:52:59.569Z,20.10
2018-09-23T01:55:27.599Z,23.43
2018-09-23T01:57:55.585Z,28.47
2018-09-23T02:00:23.606Z,19.40
2018-09-23T02:02:51.620Z,27.80
2018-09-23T02:05:19.629Z,31.23
2018-09-23T02:07:47.688Z,26.23
2018-09-23T02:10:15.744Z,23.07
2018-09-23T02:12:43.812Z,23.70
2018-09-23T02:15:12.020Z,19.30
2018-09-23T02:17:40.009Z,22.80
2018-09-23T02:20:08.017Z,21.70
2018-09-23T02:22:36.046Z,24.60
2018-09-23T02:25:04.089Z,22.27
2018-09-23T02:27:32.129Z,21.00
2018-09-23T02:30:00.169Z,28.20
2018-09-23T02:32:28.212Z,21.80
2018-09-23T02:34:56.193Z,23.73
2018-09-23T02:37:24.282Z,21.90
2018-09-23T02:39:52.285Z,26.07
2018-09-23T02:42:20.309Z,20.40
2018-09-23T02:44:48.432Z,26.27
2018-09-23T02:47:16.448Z,33.03
2018-09-23T02:49:44.503Z,26.30
2018-09-23T02:52:12.604Z,29.27
2018-09-23T02:54:40.617Z,25.70
2018-09-23T02:57:08.606Z,22.27
2018-09-23T02:59:36.593Z,28.93
2018-09-23T03:02:04.636Z,23.13
2018-09-23T03:04:32.636Z,28.20
2018-09-23T03:07:01.096Z,24.87
2018-09-23T03:09:29.019Z,24.30
2018-09-23T03:11:57.053Z,25.27
2018-09-23T03:14:25.025Z,25.27
2018-09-23T03:16:53.065Z,26.47
2018-09-23T03:19:21.072Z,26.00
2018-09-23T03:21:49.086Z,27.70
2018-09-23T03:24:17.116Z,23.37
2018-09-23T03:26:45.117Z,22.27
2018-09-23T03:29:13.120Z,27.33
2018-09-23T03:31:41.120Z,32.73
2018-09-23T03:34:09.105Z,23.77
2018-09-23T03:36:37.149Z,23.80
2018-09-23T03:39:06.605Z,25.93
2018-09-23T03:41:34.768Z,20.67
2018-09-23T03:44:02.812Z,25.40
2018-09-23T03:46:30.812Z,26.57
2018-09-23T03:48:59.126Z,24.73
2018-09-23T03:51:27.229Z,21.50
2018-09-23T03:53:55.285Z,20.70
2018-09-23T03:56:23.351Z,21.73
2018-09-23T03:58:51.329Z,21.70
2018-09-23T04:01:19.335Z,23.23
2018-09-23T04:03:47.385Z,24.63
2018-09-23T04:06:15.489Z,22.83
2018-09-23T04:08:43.544Z,21.80
2018-09-23T04:11:11.558Z,23.73
2018-09-23T04:13:39.593Z,28.40
2018-09-23T04:16:07.596Z,26.13
2018-09-23T04:18:35.636Z,19.93
2018-09-23T04:21:03.942Z,25.77
2018-09-23T04:23:31.989Z,28.03
2018-09-23T04:25:59.988Z,23.70
2018-09-23T04:28:27.999Z,20.50
2018-09-23T04:30:56.016Z,18.80
2018-09-23T04:33:24.028Z,25.63
2018-09-23T04:35:52.045Z,19.63
2018-09-23T04:38:20.073Z,24.80
2018-09-23T04:40:48.175Z,21.23
2018-09-23T04:43:16.218Z,25.80
2018-09-23T04:45:44.237Z,25.43
2018-09-23T04:48:12.273Z,22.67
2018-09-23T04:50:40.477Z,23.43
2018-09-23T04:53:08.482Z,23.33
2018-09-23T04:55:36.481Z,22.83
2018-09-23T04:58:04.528Z,23.77
2018-09-23T05:00:32.508Z,22.53
2018-09-23T05:03:00.516Z,27.90
2018-09-23T05:05:28.506Z,24.67
2018-09-23T05:07:56.543Z,28.03
2018-09-23T05:10:24.574Z,25.13
2018-09-23T05:12:52.613Z,19.67
2018-09-23T05:15:20.616Z,24.77
2018-09-23T05:17:48.636Z,29.33
2018-09-23T05:20:16.664Z,19.60
2018-09-23T05:22:44.676Z,22.50
2018-09-23T05:25:12.697Z,24.23
2018-09-23T05:27:40.724Z,22.10
2018-09-23T05:30:08.730Z,20.07
2018-09-23T05:32:36.837Z,25.10
2018-09-23T05:35:04.837Z,24.60
2018-09-23T05:37:32.849Z,24.07
2018-09-23T05:40:00.870Z,27.10
2018-09-23T05:42:28.902Z,29.20
2018-09-23T05:44:56.901Z,25.17
2018-09-23T05:47:24.897Z,23.40
2018-09-23T05:49:52.965Z,24.90
2018-09-23T05:52:21.020Z,24.33
2018-09-23T05:54:49.032Z,22.20
2018-09-23T05:57:17.060Z,26.93
2018-09-23T05:59:45.082Z,27.17
2018-09-23T06:02:13.325Z,26.57
2018-09-23T06:04:41.415Z,24.10
2018-09-23T06:07:09.457Z,26.63
2018-09-23T06:09:37.461Z,22.93
2018-09-23T06:12:05.537Z,29.30
2018-09-23T06:14:33.569Z,29.60
2018-09-23T06:17:01.571Z,27.00
2018-09-23T06:19:29.593Z,26.27
2018-09-23T06:21:57.596Z,26.30
2018-09-23T06:24:25.683Z,29.57
2018-09-23T06:26:53.680Z,32.10
2018-09-23T06:29:21.676Z,29.50
2018-09-23T06:31:49.668Z,31.57
2018-09-23T06:34:17.704Z,28.97
2018-09-23T06:36:45.805Z,29.10
2018-09-23T06:39:13.825Z,24.73
2018-09-23T06:41:41.821Z,25.70
2018-09-23T06:44:09.937Z,25.50
2018-09-23T06:46:37.925Z,27.13
2018-09-23T06:49:06.035Z,27.47
2018-09-23T06:51:34.060Z,27.30
2018-09-23T06:54:02.136Z,27.97
2018-09-23T06:56:30.153Z,46.70
2018-09-23T06:58:58.243Z,27.43
2018-09-23T07:01:26.329Z,30.43
2018-09-23T07:03:54.340Z,28.57
2018-09-23T07:06:23.413Z,28.50
2018-09-23T07:08:51.440Z,25.90
2018-09-23T07:11:19.469Z,26.07
2018-09-23T07:13:47.454Z,27.50
2018-09-23T07:16:15.504Z,25.77
2018-09-23T07:18:43.561Z,23.83
2018-09-23T07:21:11.572Z,28.47
2018-09-23T07:23:39.653Z,27.00
2018-09-23T07:26:07.662Z,30.07
2018-09-23T07:28:35.738Z,35.80
2018-09-23T07:31:03.763Z,25.03
2018-09-23T07:33:31.932Z,29.83
2018-09-23T07:36:00.025Z,27.17
2018-09-23T07:38:28.137Z,33.73
2018-09-23T07:40:56.180Z,32.57
2018-09-23T07:43:24.188Z,32.30
2018-09-23T07:45:52.248Z,28.27
2018-09-23T07:48:20.249Z,31.87
2018-09-23T07:50:48.356Z,32.10
2018-09-23T07:53:16.364Z,32.83
2018-09-23T07:55:44.700Z,36.47
2018-09-23T07:58:12.721Z,30.57
2018-09-23T08:00:40.706Z,27.53
2018-09-23T08:03:08.705Z,30.43
2018-09-23T08:05:36.726Z,30.83
2018-09-23T08:08:04.807Z,29.23
2018-09-23T08:10:32.822Z,25.27
2018-09-23T08:13:01.095Z,32.43
2018-09-23T08:15:28.912Z,31.43
2018-09-23T08:17:56.913Z,31.10
2018-09-23T08:20:25.057Z,26.40
2018-09-23T08:22:53.135Z,29.00
2018-09-23T08:25:21.182Z,26.83
2018-09-23T08:27:49.230Z,24.83
2018-09-23T08:30:17.348Z,27.90
2018-09-23T08:32:45.465Z,32.13
2018-09-23T08:35:13.525Z,27.90
2018-09-23T08:37:41.570Z,25.27
2018-09-23T08:40:09.635Z,28.10
2018-09-23T08:42:37.876Z,26.00
2018-09-23T08:45:06.075Z,29.20
2018-09-23T08:47:34.184Z,22.93
2018-09-23T08:50:02.209Z,26.90
2018-09-23T08:52:30.262Z,29.60
2018-09-23T08:54:58.291Z,27.60
2018-09-23T08:57:26.368Z,23.53
2018-09-23T08:59:54.429Z,28.30
2018-09-23T09:02:22.478Z,22.73
2018-09-23T09:04:50.542Z,24.20
2018-09-23T09:07:18.610Z,22.47
2018-09-23T09:09:46.660Z,21.83
2018-09-23T09:12:14.686Z,21.70
2018-09-23T09:14:42.688Z,22.73
2018-09-23T09:17:10.694Z,19.60
2018-09-23T09:19:38.697Z,20.77
2018-09-23T09:22:06.772Z,25.23
2018-09-23T09:24:34.973Z,18.87
2018-09-23T09:27:03.027Z,17.60
2018-09-23T09:29:30.997Z,21.13
2018-09-23T09:31:59.029Z,15.17
2018-09-23T09:34:27.020Z,14.43
2018-09-23T09:36:55.149Z,19.40
2018-09-23T09:39:23.227Z,18.47
2018-09-23T09:41:51.237Z,16.17
2018-09-23T09:44:19.236Z,17.83
2018-09-23T09:46:47.301Z,13.43
2018-09-23T09:49:15.426Z,21.23
2018-09-23T09:51:43.473Z,16.20
2018-09-23T09:54:12.548Z,14.10
2018-09-23T09:56:40.673Z,11.67
2018-09-23T09:59:08.709Z,15.70
2018-09-23T10:01:36.743Z,15.97
2018-09-23T10:04:04.812Z,13.90
2018-09-23T10:06:32.914Z,15.47
2018-09-23T10:09:00.944Z,17.23
2018-09-23T10:11:29.027Z,14.00
2018-09-23T10:13:56.985Z,19.20
2018-09-23T10:16:25.024Z,18.30
2018-09-23T10:18:53.072Z,16.80
2018-09-23T10:21:21.117Z,19.13
2018-09-23T10:23:49.112Z,14.20
2018-09-23T10:26:17.125Z,19.57
2018-09-23T10:28:45.165Z,17.90
2018-09-23T10:31:13.260Z,19.33
2018-09-23T10:33:41.412Z,13.70
2018-09-23T10:36:09.497Z,16.93
2018-09-23T10:38:37.433Z,19.10
2018-09-23T10:41:05.445Z,16.13
2018-09-23T10:43:33.477Z,15.80
2018-09-23T10:46:01.497Z,14.83
2018-09-23T10:48:29.693Z,16.67
2018-09-23T10:50:57.757Z,16.17
2018-09-23T10:53:25.825Z,16.37
2018-09-23T10:55:53.881Z,16.80
2018-09-23T10:58:21.919Z,17.83
2018-09-23T11:00:49.989Z,19.87
2018-09-23T11:03:18.050Z,15.10
2018-09-23T11:05:46.098Z,20.07
2018-09-23T11:08:14.139Z,17.00
2018-09-23T11:10:42.153Z,20.30
2018-09-23T11:13:10.316Z,17.70
2018-09-23T11:15:38.393Z,13.07
2018-09-23T11:18:06.679Z,14.00
2018-09-23T11:20:34.701Z,19.00
2018-09-23T11:23:02.772Z,19.97
2018-09-23T11:25:30.788Z,12.57
2018-09-23T11:27:58.817Z,16.43
2018-09-23T11:30:26.845Z,14.60
2018-09-23T11:32:54.880Z,14.77
2018-09-23T11:35:22.895Z,18.20
2018-09-23T11:37:50.967Z,16.57
2018-09-23T11:40:19.193Z,15.70
2018-09-23T11:42:47.240Z,16.07
2018-09-23T11:45:15.630Z,17.40
2018-09-23T11:47:43.673Z,13.60
2018-09-23T11:50:11.705Z,24.53
2018-09-23T11:52:39.815Z,16.70
2018-09-23T11:55:07.973Z,14.70
2018-09-23T11:57:36.009Z,20.23
2018-09-23T12:00:04.714Z,16.10
2018-09-23T12:02:32.753Z,17.87
2018-09-23T12:05:00.771Z,18.20
2018-09-23T12:07:28.773Z,20.60
2018-09-23T12:09:56.769Z,20.27
2018-09-23T12:12:24.797Z,20.50
2018-09-23T12:14:52.860Z,23.30
2018-09-23T12:17:20.903Z,18.60
2018-09-23T12:19:48.892Z,16.40
2018-09-23T12:22:16.917Z,22.90
2018-09-23T12:24:44.981Z,20.40
2018-09-23T12:27:12.975Z,17.40
2018-09-23T12:29:41.079Z,18.60
2018-09-23T12:32:10.020Z,18.37
2018-09-23T12:34:38.204Z,18.80
2018-09-23T12:37:06.533Z,24.87
2018-09-23T12:39:34.565Z,21.07
2018-09-23T12:42:03.159Z,20.40
2018-09-23T12:44:31.208Z,25.23
2018-09-23T12:46:59.292Z,20.27
2018-09-23T12:49:28.190Z,17.73
2018-09-23T12:51:56.408Z,16.47
2018-09-23T12:54:24.758Z,16.80
2018-09-23T12:56:52.748Z,9.60
2018-09-23T12:59:20.990Z,10.57
2018-09-23T13:01:49.002Z,7.20
2018-09-23T13:04:17.044Z,12.60
2018-09-23T13:06:45.096Z,7.03
2018-09-23T13:09:13.209Z,13.27
2018-09-23T13:11:41.318Z,12.30
2018-09-23T13:14:09.621Z,11.90
2018-09-23T13:16:37.667Z,11.30
2018-09-23T13:19:05.920Z,7.50
2018-09-23T13:21:34.939Z,8.90
2018-09-23T13:24:02.942Z,11.17
2018-09-23T13:26:30.973Z,14.73
2018-09-23T13:28:59.161Z,8.97
2018-09-23T13:31:27.156Z,10.47
2018-09-23T13:33:55.201Z,9.10
2018-09-23T13:36:23.225Z,7.80
2018-09-23T13:38:51.269Z,9.60
2018-09-23T13:41:19.266Z,11.93
2018-09-23T13:43:47.268Z,17.77
2018-09-23T13:46:15.300Z,16.03
2018-09-23T13:48:43.304Z,11.97
2018-09-23T13:51:11.305Z,11.00
2018-09-23T13:53:39.343Z,9.90
2018-09-23T13:56:07.341Z,8.97
2018-09-23T13:58:35.359Z,14.97
2018-09-23T14:01:03.417Z,7.27
2018-09-23T14:03:31.425Z,14.77
2018-09-23T14:05:59.418Z,7.93
2018-09-23T14:08:27.425Z,10.70
2018-09-23T14:10:55.445Z,12.70
2018-09-23T14:13:23.497Z,6.13
2018-09-23T14:15:52.081Z,9.10
2018-09-23T14:18:20.101Z,6.17
2018-09-23T14:20:48.137Z,12.00
2018-09-23T14:23:16.157Z,12.67
2018-09-23T14:25:44.133Z,10.10
2018-09-23T14:28:12.191Z,7.13
2018-09-23T14:30:40.209Z,7.47
2018-09-23T14:33:08.217Z,8.20
2018-09-23T14:35:36.416Z,6.53
2018-09-23T14:38:04.353Z,7.10
2018-09-23T14:40:32.376Z,9.40
2018-09-23T14:43:00.418Z,7.50
2018-09-23T14:45:28.502Z,10.37
2018-09-23T14:47:56.501Z,11.30
2018-09-23T14:50:24.541Z,11.63
2018-09-23T14:52:52.564Z,7.87
2018-09-23T14:55:20.581Z,7.87
2018-09-23T14:57:48.618Z,15.20
2018-09-23T15:00:16.650Z,5.83
2018-09-23T15:02:44.690Z,6.50
2018-09-23T15:05:12.750Z,13.40
2018-09-23T15:07:40.899Z,7.70
2018-09-23T15:10:08.937Z,9.73
2018-09-23T15:12:36.984Z,8.50
2018-09-23T15:15:05.197Z,7.97
2018-09-23T15:17:33.346Z,9.50
2018-09-23T15:20:01.349Z,17.20
2018-09-23T15:22:29.465Z,10.23
2018-09-23T15:24:57.468Z,12.33
2018-09-23T15:27:25.495Z,10.23
2018-09-23T15:29:53.553Z,5.33
2018-09-23T15:32:21.646Z,7.70
2018-09-23T15:34:49.657Z,8.57
2018-09-23T15:37:18.221Z,6.70
2018-09-23T15:39:46.285Z,4.60
2018-09-23T15:42:14.364Z,6.00
2018-09-23T15:44:42.364Z,4.07
2018-09-23T15:47:10.404Z,3.23
2018-09-23T15:49:38.417Z,6.30
2018-09-23T15:52:06.604Z,4.17
2018-09-23T15:54:34.596Z,7.80
2018-09-23T15:57:02.599Z,3.60
2018-09-23T15:59:30.625Z,8.00
2018-09-23T16:01:58.643Z,5.43
2018-09-23T16:04:26.834Z,2.83
2018-09-23T16:06:54.783Z,3.33
2018-09-23T16:09:22.800Z,3.23
2018-09-23T16:11:51.096Z,3.10
2018-09-23T16:14:19.125Z,2.63
2018-09-23T16:16:47.148Z,3.27
2018-09-23T16:19:15.178Z,2.20
2018-09-23T16:21:43.133Z,3.70
2018-09-23T16:24:11.227Z,10.97
2018-09-23T16:26:39.213Z,3.10
2018-09-23T16:29:07.432Z,2.60
2018-09-23T16:31:35.437Z,2.50
2018-09-23T16:34:03.439Z,2.53
2018-09-23T16:36:31.432Z,3.30
2018-09-23T16:38:59.559Z,3.27
2018-09-23T16:41:27.548Z,2.73
2018-09-23T16:43:55.564Z,5.13
2018-09-23T16:46:23.602Z,3.87
2018-09-23T16:48:51.608Z,9.03
2018-09-23T16:51:19.637Z,4.10
2018-09-23T16:53:47.887Z,3.97
2018-09-23T16:56:16.030Z,4.87
2018-09-23T16:58:44.030Z,2.03
2018-09-23T17:01:12.073Z,6.53
2018-09-23T17:03:40.072Z,3.30
2018-09-23T17:06:08.104Z,3.63
2018-09-23T17:08:36.184Z,7.07
2018-09-23T17:11:04.221Z,3.60
2018-09-23T17:13:32.225Z,5.20
2018-09-23T17:16:00.224Z,3.77
2018-09-23T17:18:28.256Z,6.87
2018-09-23T17:20:56.265Z,3.10
2018-09-23T17:23:24.285Z,6.33
2018-09-23T17:25:52.310Z,2.63
2018-09-23T17:28:20.341Z,5.77
2018-09-23T17:30:48.345Z,4.80
2018-09-23T17:33:16.376Z,8.57
2018-09-23T17:35:44.446Z,2.87
2018-09-23T17:38:12.604Z,3.40
2018-09-23T17:40:40.645Z,5.27
2018-09-23T17:43:08.717Z,4.67
2018-09-23T17:45:36.772Z,4.90
2018-09-23T17:48:04.968Z,4.67
2018-09-23T17:50:33.194Z,5.20
2018-09-23T17:53:01.263Z,2.90
2018-09-23T17:55:29.367Z,2.60
2018-09-23T17:57:57.584Z,1.70
2018-09-23T18:00:25.572Z,2.10
2018-09-23T18:02:53.600Z,3.80
2018-09-23T18:05:21.608Z,1.47
2018-09-23T18:07:49.634Z,4.63
2018-09-23T18:10:17.853Z,2.50
2018-09-23T18:12:46.122Z,6.23
2018-09-23T18:15:14.212Z,4.77
2018-09-23T18:17:42.221Z,2.43
2018-09-23T18:20:10.258Z,6.50
2018-09-23T18:22:38.434Z,3.20
2018-09-23T18:25:06.435Z,4.97
2018-09-23T18:27:35.543Z,6.83
2018-09-23T18:30:04.524Z,2.77
2018-09-23T18:32:32.653Z,5.83
2018-09-23T18:35:00.687Z,3.90
2018-09-23T18:37:28.807Z,2.40
2018-09-23T18:39:56.701Z,3.30
2018-09-23T18:42:24.748Z,2.87
2018-09-23T18:44:52.777Z,6.53
2018-09-23T18:47:20.785Z,1.90
2018-09-23T18:49:48.810Z,3.70
2018-09-23T18:52:16.945Z,5.47
2018-09-23T18:54:50.317Z,2.53
2018-09-23T18:57:18.341Z,3.37
2018-09-23T18:59:46.380Z,2.87
2018-09-23T19:02:14.421Z,5.03
2018-09-23T19:04:42.589Z,5.50
2018-09-23T19:07:10.643Z,10.10
2018-09-23T19:09:38.629Z,8.13
2018-09-23T19:12:06.640Z,2.73
2018-09-23T19:14:34.749Z,7.53
2018-09-23T19:17:02.805Z,5.73
2018-09-23T19:19:36.400Z,6.90
2018-09-23T19:22:07.463Z,7.27
2018-09-23T19:24:35.496Z,7.20
2018-09-23T19:27:03.520Z,9.43
2018-09-23T19:29:31.509Z,4.57
2018-09-23T19:31:59.536Z,7.10
2018-09-23T19:34:27.549Z,10.07
2018-09-23T19:36:55.604Z,7.37
2018-09-23T19:39:23.633Z,9.43
2018-09-23T19:41:51.677Z,6.53
2018-09-23T19:44:19.672Z,5.20
2018-09-23T19:46:47.724Z,11.20
2018-09-23T19:49:15.802Z,7.63
2018-09-23T19:51:43.745Z,3.63
2018-09-23T19:54:11.809Z,6.40
2018-09-23T19:56:39.988Z,6.60
2018-09-23T19:59:08.004Z,3.43
2018-09-23T20:01:36.065Z,3.80
2018-09-23T20:04:04.191Z,2.60
2018-09-23T20:06:32.217Z,2.20
2018-09-23T20:09:00.240Z,7.33
2018-09-23T20:11:28.288Z,5.90
2018-09-23T20:13:56.339Z,7.97
2018-09-23T20:16:24.364Z,3.83
2018-09-23T20:18:52.445Z,5.50
2018-09-23T20:21:20.454Z,3.20
2018-09-23T20:23:48.444Z,5.57
2018-09-23T20:26:16.553Z,5.40
2018-09-23T20:28:44.626Z,11.90
2018-09-23T20:31:12.667Z,5.60
2018-09-23T20:33:40.701Z,4.80
2018-09-23T20:36:08.723Z,5.40
2018-09-23T20:38:36.904Z,3.37
2018-09-23T20:41:04.892Z,7.23
2018-09-23T20:43:32.926Z,6.93
2018-09-23T20:46:00.961Z,14.70
2018-09-23T20:48:28.988Z,3.80
2018-09-23T20:50:56.980Z,3.40
2018-09-23T20:53:25.029Z,4.10
2018-09-23T20:55:53.047Z,13.63
2018-09-23T20:58:21.109Z,5.10
2018-09-23T21:00:49.164Z,3.83
2018-09-23T21:03:17.171Z,15.20
2018-09-23T21:05:45.335Z,10.10
2018-09-23T21:08:13.408Z,9.60
2018-09-23T21:10:41.410Z,8.40
2018-09-23T21:13:09.837Z,6.73
2018-09-23T21:15:37.885Z,7.83
2018-09-23T21:18:05.956Z,13.20
2018-09-23T21:20:33.973Z,4.57
2018-09-23T21:23:02.016Z,6.70
2018-09-23T21:25:30.163Z,13.60
2018-09-23T21:27:58.257Z,6.37
2018-09-23T21:30:26.277Z,7.63
2018-09-23T21:32:54.345Z,11.40
2018-09-23T21:35:22.396Z,4.20
2018-09-23T21:37:50.725Z,4.50
2018-09-23T21:40:18.753Z,13.30
2018-09-23T21:42:46.745Z,8.40
2018-09-23T21:45:15.837Z,6.03
2018-09-23T21:47:43.850Z,11.20
2018-09-23T21:50:12.165Z,10.20
2018-09-23T21:52:40.216Z,8.97
2018-09-23T21:55:08.435Z,12.13
2018-09-23T21:57:36.478Z,10.33
2018-09-23T22:00:06.650Z,6.10
2018-09-23T22:02:34.653Z,9.13
2018-09-23T22:05:02.857Z,5.63
2018-09-23T22:07:30.951Z,5.87
2018-09-23T22:09:58.986Z,9.67
2018-09-23T22:12:27.049Z,4.10
2018-09-23T22:14:55.073Z,8.90
2018-09-23T22:17:23.112Z,4.63
2018-09-23T22:19:51.340Z,4.60
2018-09-23T22:22:19.357Z,9.67
2018-09-23T22:24:47.416Z,8.13
2018-09-23T22:27:15.456Z,2.90
2018-09-23T22:29:43.476Z,8.13
2018-09-23T22:32:11.516Z,4.40
2018-09-23T22:34:39.537Z,7.90
2018-09-23T22:37:07.552Z,5.90
2018-09-23T22:39:35.594Z,4.33
2018-09-23T22:42:03.655Z,3.90
2018-09-23T22:44:31.628Z,6.10
2018-09-23T22:46:59.668Z,7.20
2018-09-23T22:49:27.809Z,13.17
2018-09-23T22:51:56.889Z,7.43
2018-09-23T22:54:24.912Z,6.03
2018-09-23T22:56:52.926Z,20.33
2018-09-23T22:59:20.934Z,6.23
2018-09-23T23:01:48.968Z,8.60
2018-09-23T23:04:16.984Z,10.00
2018-09-23T23:06:45.025Z,13.03
2018-09-23T23:09:12.997Z,8.53
2018-09-23T23:11:41.001Z,12.30
2018-09-23T23:14:09.289Z,8.27
2018-09-23T23:16:37.297Z,4.23
2018-09-23T23:19:05.349Z,12.60
2018-09-23T23:21:33.408Z,9.10
2018-09-23T23:24:01.421Z,2.33
2018-09-23T23:26:29.444Z,12.73
2018-09-23T23:28:57.515Z,4.97
2018-09-23T23:31:25.532Z,4.73
2018-09-23T23:33:53.506Z,7.30
2018-09-23T23:36:21.493Z,4.83
2018-09-23T23:38:49.525Z,6.40
2018-09-23T23:41:17.559Z,8.73
2018-09-23T23:43:45.588Z,6.57
2018-09-23T23:46:13.576Z,5.10
2018-09-23T23:48:41.601Z,12.53
2018-09-23T23:51:09.573Z,13.53
2018-09-23T23:53:37.637Z,7.93
2018-09-23T23:56:05.713Z,10.70
2018-09-23T23:58:33.697Z,4.67
